Time;durP1;ratioP1;P1;durP2;ratioP2;P2;SDS_P1;SDS_P2;PMS_P1;PMS_P2;Temp;Humidity;BMP_temperature;BMP_pressure;BME280_temperature;BME280_humidity;BME280_pressure;Samples;Min_cycle;Max_cycle;Signal;HPM_P1;HPM_P2
2023/09/22 00:00:19;;;;;;;1.27;1.17;;;15.00;99.90;;;;;;5051543;28;20201;-68
2023/09/22 00:02:46;;;;;;;5.17;1.30;;;15.00;99.90;;;;;;5052492;28;20698;-68
2023/09/22 00:05:15;;;;;;;1.37;1.27;;;14.90;99.90;;;;;;5064403;28;20187;-67
2023/09/22 00:07:41;;;;;;;1.43;1.33;;;15.00;99.90;;;;;;5052838;28;20463;-67
2023/09/22 00:10:08;;;;;;;1.57;1.30;;;14.90;99.90;;;;;;5051441;28;20940;-68
2023/09/22 00:12:34;;;;;;;1.70;1.60;;;14.80;99.90;;;;;;5057302;28;20478;-67
2023/09/22 00:15:00;;;;;;;2.17;1.33;;;14.70;99.90;;;;;;5060038;28;20510;-68
2023/09/22 00:17:27;;;;;;;2.80;2.30;;;14.70;99.90;;;;;;5054711;28;20200;-68
2023/09/22 00:19:53;;;;;;;1.30;1.00;;;14.70;99.90;;;;;;5062872;28;20427;-67
2023/09/22 00:22:18;;;;;;;1.47;1.23;;;14.60;99.90;;;;;;5054939;28;20455;-67
2023/09/22 00:24:44;;;;;;;1.33;1.20;;;14.60;99.90;;;;;;5051942;28;20635;-67
2023/09/22 00:27:10;;;;;;;1.40;1.20;;;14.60;99.90;;;;;;5051220;28;20844;-66
2023/09/22 00:29:36;;;;;;;1.27;1.03;;;14.60;99.90;;;;;;5050004;28;20165;-66
2023/09/22 00:32:03;;;;;;;1.70;1.20;;;14.60;99.90;;;;;;5051200;28;20482;-67
2023/09/22 00:34:30;;;;;;;3.83;1.63;;;14.60;99.90;;;;;;5051017;28;20170;-68
2023/09/22 00:36:56;;;;;;;2.57;1.30;;;14.70;99.90;;;;;;5051262;28;20419;-67
2023/09/22 00:39:22;;;;;;;2.27;1.50;;;14.60;99.90;;;;;;5048123;28;20953;-68
2023/09/22 00:41:48;;;;;;;1.90;1.40;;;14.50;99.90;;;;;;5051036;28;20208;-68
2023/09/22 00:44:13;;;;;;;2.67;1.00;;;14.50;99.90;;;;;;5049222;28;20428;-66
2023/09/22 00:46:40;;;;;;;1.30;1.20;;;14.50;99.90;;;;;;5049878;28;20667;-66
2023/09/22 00:49:07;;;;;;;1.80;1.70;;;14.50;99.90;;;;;;5052240;28;20276;-67
2023/09/22 00:51:33;;;;;;;1.53;1.30;;;14.40;99.90;;;;;;5049909;28;20960;-68
2023/09/22 00:54:00;;;;;;;2.70;1.20;;;14.40;99.90;;;;;;5048332;28;20432;-67
2023/09/22 00:56:26;;;;;;;2.17;1.40;;;14.30;99.90;;;;;;5051618;28;20424;-68
2023/09/22 00:58:52;;;;;;;1.53;1.20;;;14.20;99.90;;;;;;5058298;28;20522;-69
2023/09/22 01:01:20;;;;;;;3.67;1.20;;;14.20;99.90;;;;;;5047371;28;20705;-67
2023/09/22 01:03:45;;;;;;;1.30;1.20;;;14.20;99.90;;;;;;5049591;28;20177;-67
2023/09/22 01:06:11;;;;;;;3.50;1.73;;;14.20;99.90;;;;;;5050850;28;20431;-67
2023/09/22 01:08:37;;;;;;;1.47;1.07;;;14.10;99.90;;;;;;5050502;28;20227;-67
2023/09/22 01:11:03;;;;;;;1.80;1.60;;;14.10;99.90;;;;;;5049945;28;20997;-68
2023/09/22 01:13:28;;;;;;;2.40;1.40;;;14.20;99.90;;;;;;5055526;28;20260;-67
2023/09/22 01:15:55;;;;;;;1.60;1.47;;;14.20;99.90;;;;;;5056785;28;20538;-67
2023/09/22 01:18:22;;;;;;;1.93;1.37;;;14.10;99.90;;;;;;5045769;28;20231;-68
2023/09/22 01:20:47;;;;;;;2.23;1.57;;;14.20;99.90;;;;;;5049460;28;20452;-68
2023/09/22 01:23:13;;;;;;;2.90;1.33;;;14.20;99.90;;;;;;5050259;28;20997;-67
2023/09/22 01:25:40;;;;;;;1.90;1.40;;;14.20;99.90;;;;;;5055257;28;20534;-67
2023/09/22 01:28:07;;;;;;;2.30;1.20;;;14.20;99.90;;;;;;5051099;28;20964;-68
2023/09/22 01:30:33;;;;;;;1.87;1.30;;;14.10;99.90;;;;;;5051211;28;20491;-68
2023/09/22 01:33:03;;;;;;;2.60;1.20;;;14.10;99.90;;;;;;5047403;28;20669;-67
2023/09/22 01:35:32;;;;;;;1.80;1.13;;;14.10;99.90;;;;;;5049586;28;20925;-67
2023/09/22 01:38:30;;;;;;;3.07;1.40;;;14.20;99.90;;;;;;5054154;28;20616;-67
2023/09/22 01:40:58;;;;;;;1.80;1.03;;;14.10;99.90;;;;;;5011452;28;20467;-67
2023/09/22 01:43:23;;;;;;;1.73;1.30;;;14.10;99.90;;;;;;5050265;28;20439;-68
2023/09/22 01:45:49;;;;;;;4.43;1.80;;;14.10;99.90;;;;;;5053299;28;20459;-67
2023/09/22 01:48:14;;;;;;;1.77;1.43;;;14.10;99.90;;;;;;5046303;28;20217;-68
2023/09/22 01:50:41;;;;;;;1.53;1.20;;;14.10;99.90;;;;;;5054095;28;20197;-67
2023/09/22 01:53:08;;;;;;;2.50;1.67;;;14.10;99.90;;;;;;5047728;28;20581;-70
2023/09/22 01:55:35;;;;;;;2.10;1.57;;;14.10;99.90;;;;;;5050380;28;20463;-67
2023/09/22 01:58:00;;;;;;;2.17;1.23;;;14.20;99.90;;;;;;5050688;28;20463;-69
2023/09/22 02:00:26;;;;;;;1.60;1.50;;;14.20;99.90;;;;;;5050762;28;20538;-68
2023/09/22 02:02:52;;;;;;;1.80;1.70;;;14.20;99.90;;;;;;5053116;28;20182;-68
2023/09/22 02:05:18;;;;;;;2.10;1.27;;;14.20;99.90;;;;;;5056790;28;20172;-69
2023/09/22 02:07:44;;;;;;;1.93;1.83;;;14.20;99.90;;;;;;5053748;28;20458;-68
2023/09/22 02:10:10;;;;;;;1.60;1.10;;;14.10;99.90;;;;;;5061953;28;20805;-68
2023/09/22 02:12:37;;;;;;;1.70;1.60;;;14.10;99.90;;;;;;5054866;28;20223;-68
2023/09/22 02:15:04;;;;;;;1.80;1.70;;;14.10;99.90;;;;;;5054899;28;20412;-69
2023/09/22 02:17:31;;;;;;;1.40;1.30;;;14.20;99.90;;;;;;5061401;28;20476;-69
2023/09/22 02:19:57;;;;;;;3.03;1.50;;;14.20;99.90;;;;;;5057570;28;20447;-69
2023/09/22 02:22:23;;;;;;;1.87;1.30;;;14.20;99.90;;;;;;5059364;28;21211;-69
2023/09/22 02:24:49;;;;;;;1.23;1.13;;;14.20;99.90;;;;;;5067201;28;20426;-69
2023/09/22 02:27:14;;;;;;;2.23;1.50;;;14.30;99.90;;;;;;5064040;28;20198;-69
2023/09/22 02:29:40;;;;;;;1.40;1.30;;;14.30;99.90;;;;;;5067935;28;20451;-68
2023/09/22 02:32:05;;;;;;;2.33;1.43;;;14.20;99.90;;;;;;5061823;28;20571;-69
2023/09/22 02:34:33;;;;;;;2.07;1.97;;;14.30;99.90;;;;;;5068259;28;20213;-68
2023/09/22 02:36:58;;;;;;;1.40;1.30;;;14.30;99.90;;;;;;5049461;28;20180;-68
2023/09/22 02:39:24;;;;;;;2.07;1.37;;;14.30;99.90;;;;;;5058067;28;20436;-69
2023/09/22 02:41:49;;;;;;;1.50;1.40;;;14.40;99.90;;;;;;5053922;28;20203;-69
2023/09/22 02:44:15;;;;;;;2.83;1.43;;;14.40;99.90;;;;;;5049393;28;20542;-68
2023/09/22 02:46:41;;;;;;;2.00;1.40;;;14.40;99.90;;;;;;5059683;28;20195;-69
2023/09/22 02:49:08;;;;;;;7.97;1.70;;;14.40;99.90;;;;;;5065148;28;20439;-69
2023/09/22 02:51:34;;;;;;;1.50;1.40;;;14.40;99.90;;;;;;5054340;28;20464;-68
2023/09/22 02:53:59;;;;;;;1.97;1.30;;;14.40;99.90;;;;;;5066133;28;20476;-69
2023/09/22 02:56:25;;;;;;;1.80;1.50;;;14.40;99.90;;;;;;5073127;28;20176;-68
2023/09/22 02:58:50;;;;;;;2.00;1.90;;;14.40;99.90;;;;;;5054103;28;20526;-69
2023/09/22 03:01:16;;;;;;;1.53;1.17;;;14.40;99.90;;;;;;5056955;28;20196;-69
2023/09/22 03:03:42;;;;;;;3.00;1.70;;;14.40;99.90;;;;;;5052903;28;20174;-69
2023/09/22 03:06:11;;;;;;;2.10;1.30;;;14.50;99.90;;;;;;5051445;28;20235;-68
2023/09/22 03:08:37;;;;;;;2.00;1.90;;;14.50;99.90;;;;;;5058600;28;20471;-69
2023/09/22 03:11:02;;;;;;;3.20;1.60;;;14.50;99.90;;;;;;5060928;28;20508;-69
2023/09/22 03:13:27;;;;;;;1.10;1.00;;;14.50;99.90;;;;;;5052149;28;20355;-68
2023/09/22 03:15:53;;;;;;;1.37;1.30;;;14.50;99.90;;;;;;5061800;28;20200;-68
2023/09/22 03:18:19;;;;;;;2.80;1.77;;;14.50;99.90;;;;;;5068749;28;20208;-68
2023/09/22 03:20:46;;;;;;;1.30;1.20;;;14.50;99.90;;;;;;5065025;28;20684;-69
2023/09/22 03:23:12;;;;;;;1.67;1.20;;;14.50;99.90;;;;;;5056214;28;20452;-69
2023/09/22 03:25:37;;;;;;;1.80;1.57;;;14.50;99.90;;;;;;5049895;28;20439;-68
2023/09/22 03:28:03;;;;;;;2.07;1.57;;;14.40;99.90;;;;;;5048389;28;20251;-69
2023/09/22 03:30:29;;;;;;;1.37;1.17;;;14.40;99.90;;;;;;5049808;28;20255;-68
2023/09/22 03:32:56;;;;;;;5.53;1.80;;;14.30;99.90;;;;;;5052195;28;21030;-69
2023/09/22 03:35:21;;;;;;;5.13;1.27;;;14.30;99.90;;;;;;5052031;28;20221;-68
2023/09/22 03:37:48;;;;;;;1.50;1.33;;;14.30;99.90;;;;;;5054963;28;20479;-68
2023/09/22 03:40:14;;;;;;;2.30;1.40;;;14.30;99.90;;;;;;5051682;28;20650;-68
2023/09/22 03:42:44;;;;;;;1.60;1.43;;;14.30;99.90;;;;;;5050168;28;20440;-68
2023/09/22 03:45:10;;;;;;;1.80;1.27;;;14.30;99.90;;;;;;5048982;28;20794;-68
2023/09/22 03:47:36;;;;;;;2.20;1.40;;;14.30;99.90;;;;;;5048841;28;20456;-69
2023/09/22 03:50:03;;;;;;;2.57;1.50;;;14.30;99.90;;;;;;5054812;28;20170;-69
2023/09/22 03:52:28;;;;;;;2.97;1.83;;;14.20;99.90;;;;;;5052740;28;20523;-69
2023/09/22 03:54:54;;;;;;;1.73;1.30;;;14.30;99.90;;;;;;5051976;28;20585;-68
2023/09/22 03:57:20;;;;;;;3.70;1.90;;;14.30;99.90;;;;;;5049931;28;20182;-68
2023/09/22 03:59:45;;;;;;;3.40;1.40;;;14.40;99.90;;;;;;5052542;28;20439;-67
2023/09/22 04:02:11;;;;;;;2.33;1.33;;;14.40;99.90;;;;;;5060526;28;20187;-68
2023/09/22 04:04:36;;;;;;;2.07;1.87;;;14.50;99.90;;;;;;5058852;28;20173;-68
2023/09/22 04:07:02;;;;;;;2.07;1.43;;;14.50;99.90;;;;;;5065925;28;20624;-68
2023/09/22 04:09:28;;;;;;;1.97;1.40;;;14.50;99.90;;;;;;5062789;28;20176;-69
2023/09/22 04:11:53;;;;;;;2.07;1.60;;;14.40;99.90;;;;;;5063993;28;20612;-68
2023/09/22 04:14:20;;;;;;;1.53;1.30;;;14.40;99.90;;;;;;5061672;28;20436;-68
2023/09/22 04:16:46;;;;;;;1.80;1.70;;;14.40;99.90;;;;;;5051581;28;20178;-69
2023/09/22 04:19:13;;;;;;;3.70;1.20;;;14.40;99.90;;;;;;5055360;28;20437;-68
2023/09/22 04:21:42;;;;;;;1.53;1.43;;;14.50;99.90;;;;;;5047357;28;20196;-68
2023/09/22 04:24:11;;;;;;;4.97;1.67;;;14.40;99.90;;;;;;5065266;28;20434;-68
2023/09/22 04:26:43;;;;;;;1.37;1.20;;;14.40;99.90;;;;;;5050974;28;20448;-69
2023/09/22 04:29:10;;;;;;;2.93;1.40;;;14.50;99.90;;;;;;5049454;28;20429;-69
2023/09/22 04:31:36;;;;;;;1.50;1.40;;;14.50;99.90;;;;;;5050267;28;20448;-68
2023/09/22 04:34:02;;;;;;;1.67;1.40;;;14.60;99.90;;;;;;5049082;28;20430;-68
2023/09/22 04:36:27;;;;;;;1.83;1.33;;;14.50;99.90;;;;;;5059464;28;20184;-68
2023/09/22 04:38:53;;;;;;;4.90;1.40;;;14.50;99.90;;;;;;5059020;28;20182;-68
2023/09/22 04:41:21;;;;;;;1.80;1.17;;;14.50;99.90;;;;;;5049255;28;20197;-69
2023/09/22 04:43:48;;;;;;;2.60;1.27;;;14.60;99.90;;;;;;5050932;28;20239;-68
2023/09/22 04:46:19;;;;;;;1.37;1.27;;;14.60;99.90;;;;;;5051555;28;20510;-68
2023/09/22 04:48:46;;;;;;;1.57;1.33;;;14.60;99.90;;;;;;5051293;28;20434;-69
2023/09/22 04:51:12;;;;;;;1.53;1.43;;;14.70;99.90;;;;;;5052053;28;20535;-68
2023/09/22 04:53:39;;;;;;;2.93;1.57;;;14.70;99.90;;;;;;5050737;28;20526;-68
2023/09/22 04:56:06;;;;;;;2.73;1.50;;;14.70;99.90;;;;;;5048753;28;20949;-69
2023/09/22 04:58:31;;;;;;;3.10;1.53;;;14.70;99.90;;;;;;5047948;28;20444;-68
2023/09/22 05:00:58;;;;;;;9.50;1.67;;;14.70;99.90;;;;;;5049203;28;20452;-68
2023/09/22 05:03:25;;;;;;;2.83;1.43;;;14.70;99.90;;;;;;5047546;28;20235;-69
2023/09/22 05:05:51;;;;;;;2.13;1.30;;;14.70;99.90;;;;;;5052919;28;20441;-69
2023/09/22 05:08:17;;;;;;;2.03;1.67;;;14.60;99.90;;;;;;5050636;28;20472;-68
2023/09/22 05:10:48;;;;;;;3.67;1.47;;;14.40;99.90;;;;;;5060653;28;20553;-68
2023/09/22 05:13:18;;;;;;;1.97;1.87;;;14.30;99.90;;;;;;5050288;28;20181;-68
2023/09/22 05:15:44;;;;;;;3.10;1.57;;;14.20;99.90;;;;;;5049699;28;20485;-68
2023/09/22 05:18:14;;;;;;;3.33;2.40;;;14.20;99.90;;;;;;5053639;28;20511;-68
2023/09/22 05:20:43;;;;;;;1.60;1.50;;;14.20;99.90;;;;;;5049822;28;20208;-68
2023/09/22 05:23:09;;;;;;;2.23;2.03;;;14.10;99.90;;;;;;5057108;28;20427;-68
2023/09/22 05:25:39;;;;;;;1.37;1.20;;;14.30;99.90;;;;;;5049352;28;20432;-68
2023/09/22 05:28:05;;;;;;;1.50;1.40;;;14.20;99.90;;;;;;5047501;28;20509;-68
2023/09/22 05:30:31;;;;;;;1.73;1.30;;;14.30;99.90;;;;;;5050376;28;20816;-68
2023/09/22 05:32:57;;;;;;;2.80;1.77;;;14.30;99.90;;;;;;5045243;28;20511;-68
2023/09/22 05:35:23;;;;;;;2.60;1.43;;;14.40;99.90;;;;;;5050454;28;20840;-68
2023/09/22 05:37:52;;;;;;;2.57;1.80;;;14.40;99.90;;;;;;5054554;28;20231;-68
2023/09/22 05:40:17;;;;;;;2.33;2.07;;;14.60;99.90;;;;;;5047926;28;20597;-68
2023/09/22 05:42:43;;;;;;;1.90;1.10;;;14.60;99.90;;;;;;5052867;28;20437;-68
2023/09/22 05:45:09;;;;;;;3.80;1.30;;;14.40;99.90;;;;;;5051125;28;20181;-67
2023/09/22 05:47:36;;;;;;;1.90;1.33;;;14.40;99.90;;;;;;5061661;28;21042;-68
2023/09/22 05:50:02;;;;;;;4.30;1.53;;;14.40;99.90;;;;;;5060961;28;20181;-67
2023/09/22 05:52:28;;;;;;;4.53;1.83;;;14.30;99.90;;;;;;5060346;28;20518;-67
2023/09/22 05:54:54;;;;;;;3.47;2.50;;;14.30;99.90;;;;;;5054134;28;20826;-68
2023/09/22 05:57:19;;;;;;;2.50;1.67;;;14.30;99.90;;;;;;5065374;28;20435;-67
2023/09/22 05:59:46;;;;;;;2.17;1.80;;;14.30;99.90;;;;;;5053050;28;20189;-68
2023/09/22 06:02:11;;;;;;;10.60;5.07;;;14.40;99.90;;;;;;5048426;28;20178;-68
2023/09/22 06:04:37;;;;;;;2.37;2.10;;;14.40;99.90;;;;;;5067897;28;20447;-68
2023/09/22 06:07:03;;;;;;;2.93;1.57;;;14.50;99.90;;;;;;5049382;28;20544;-68
2023/09/22 06:09:31;;;;;;;2.43;1.50;;;14.50;99.90;;;;;;5053238;28;20651;-67
2023/09/22 06:11:57;;;;;;;3.00;1.77;;;14.50;99.90;;;;;;5042399;28;20611;-68
2023/09/22 06:14:22;;;;;;;1.60;1.23;;;14.60;99.90;;;;;;5055957;28;20523;-68
2023/09/22 06:16:49;;;;;;;5.73;2.63;;;14.50;99.90;;;;;;5054893;28;20197;-68
2023/09/22 06:19:15;;;;;;;1.90;1.63;;;14.50;99.90;;;;;;5058249;28;20192;-68
2023/09/22 06:21:40;;;;;;;3.70;1.93;;;14.50;99.90;;;;;;5058140;28;20439;-68
2023/09/22 06:24:07;;;;;;;3.00;2.63;;;14.50;99.90;;;;;;5043143;28;20436;-68
2023/09/22 06:26:32;;;;;;;3.80;2.50;;;14.50;99.90;;;;;;5052112;28;20204;-68
2023/09/22 06:28:58;;;;;;;3.47;2.23;;;14.50;99.90;;;;;;5049302;28;20426;-68
2023/09/22 06:31:23;;;;;;;2.00;1.67;;;14.50;99.90;;;;;;5046128;28;20247;-68
2023/09/22 06:33:49;;;;;;;2.53;1.60;;;14.60;99.90;;;;;;5052676;28;20688;-68
2023/09/22 06:36:15;;;;;;;1.70;1.60;;;14.50;99.90;;;;;;5064878;28;20177;-67
2023/09/22 06:38:41;;;;;;;1.67;1.50;;;14.40;99.90;;;;;;5065142;28;20535;-68
2023/09/22 06:41:06;;;;;;;1.60;1.17;;;14.50;99.90;;;;;;5049037;28;20645;-67
2023/09/22 06:43:36;;;;;;;1.57;1.40;;;14.50;99.90;;;;;;5052492;28;20177;-67
2023/09/22 06:46:03;;;;;;;1.90;1.80;;;14.60;99.90;;;;;;5051963;28;20185;-67
2023/09/22 06:48:30;;;;;;;1.80;1.40;;;14.50;99.90;;;;;;5057818;28;20470;-67
2023/09/22 06:50:57;;;;;;;1.83;1.70;;;14.50;99.90;;;;;;5062504;28;20449;-68
2023/09/22 06:53:24;;;;;;;3.40;1.80;;;14.60;99.90;;;;;;5048000;28;20444;-68
2023/09/22 06:55:59;;;;;;;4.00;1.60;;;14.60;99.90;;;;;;5059915;28;20431;-68
2023/09/22 06:58:25;;;;;;;2.03;1.80;;;14.70;99.90;;;;;;5057240;28;20449;-68
2023/09/22 07:00:50;;;;;;;6.47;5.50;;;14.70;99.90;;;;;;5049494;28;20645;-68
2023/09/22 07:03:16;;;;;;;2.20;2.00;;;14.70;99.90;;;;;;5049064;28;20185;-68
2023/09/22 07:05:43;;;;;;;4.83;1.97;;;14.80;99.90;;;;;;5048666;28;20177;-68
2023/09/22 07:08:09;;;;;;;1.73;1.60;;;14.80;99.90;;;;;;5053044;28;20205;-68
2023/09/22 07:10:35;;;;;;;4.47;2.17;;;14.90;99.90;;;;;;5049870;28;20976;-68
2023/09/22 07:13:02;;;;;;;1.63;1.53;;;14.80;99.90;;;;;;5053854;28;20443;-68
2023/09/22 07:15:28;;;;;;;2.23;1.70;;;14.90;99.90;;;;;;5045468;28;20971;-68
2023/09/22 07:17:53;;;;;;;3.77;2.47;;;15.10;99.90;;;;;;5047623;28;20533;-68
2023/09/22 07:20:19;;;;;;;6.50;2.83;;;15.30;99.90;;;;;;5052177;28;20485;-68
2023/09/22 07:22:44;;;;;;;1.67;1.50;;;15.60;99.90;;;;;;5053222;28;20558;-68
2023/09/22 07:25:11;;;;;;;2.13;1.50;;;15.60;99.90;;;;;;5051567;28;20597;-68
2023/09/22 07:27:39;;;;;;;1.50;1.40;;;15.50;99.90;;;;;;5053131;28;20666;-68
2023/09/22 07:30:09;;;;;;;9.60;1.67;;;15.40;99.90;;;;;;5052608;28;20511;-68
2023/09/22 07:32:35;;;;;;;3.03;1.90;;;15.30;99.90;;;;;;5052914;28;20420;-68
2023/09/22 07:35:01;;;;;;;1.87;1.60;;;15.30;99.90;;;;;;5053345;28;20416;-70
2023/09/22 07:37:27;;;;;;;1.67;1.57;;;15.30;99.90;;;;;;5053270;28;20503;-70
2023/09/22 07:39:53;;;;;;;5.90;1.93;;;15.30;99.90;;;;;;5053150;28;20452;-67
2023/09/22 07:42:18;;;;;;;1.47;1.37;;;15.30;99.90;;;;;;5053054;28;20632;-67
2023/09/22 07:44:44;;;;;;;1.83;1.60;;;15.20;99.90;;;;;;5052181;28;20173;-67
2023/09/22 07:47:14;;;;;;;1.70;1.53;;;15.20;99.90;;;;;;5052577;28;20244;-67
2023/09/22 07:49:43;;;;;;;2.57;1.70;;;15.20;99.90;;;;;;5053015;28;20232;-67
2023/09/22 07:52:13;;;;;;;2.10;1.40;;;15.20;99.90;;;;;;5052862;28;20444;-67
2023/09/22 07:54:39;;;;;;;1.70;1.60;;;15.30;99.90;;;;;;5052666;28;20500;-67
2023/09/22 07:57:05;;;;;;;1.70;1.60;;;15.20;99.90;;;;;;5053181;28;20420;-67
2023/09/22 07:59:31;;;;;;;2.60;1.80;;;15.30;99.90;;;;;;5051845;28;20419;-67
2023/09/22 08:01:59;;;;;;;1.60;1.50;;;15.30;99.90;;;;;;5052102;28;20440;-67
2023/09/22 08:04:26;;;;;;;2.40;1.70;;;15.20;99.90;;;;;;5052369;28;20966;-67
2023/09/22 08:06:52;;;;;;;2.23;1.70;;;15.10;99.90;;;;;;5052629;28;20952;-67
2023/09/22 08:09:18;;;;;;;3.73;1.13;;;15.10;99.90;;;;;;5052325;28;20412;-68
2023/09/22 08:11:43;;;;;;;1.40;1.30;;;15.10;99.90;;;;;;5052585;28;20470;-68
2023/09/22 08:14:09;;;;;;;2.93;1.63;;;15.10;99.90;;;;;;5052248;28;20216;-67
2023/09/22 08:16:35;;;;;;;4.80;1.80;;;15.20;99.90;;;;;;5052618;28;20717;-67
2023/09/22 08:19:01;;;;;;;2.20;1.50;;;15.30;99.90;;;;;;5052595;28;20416;-67
2023/09/22 08:21:26;;;;;;;3.13;1.80;;;15.50;99.90;;;;;;5051299;28;20201;-68
2023/09/22 08:23:52;;;;;;;2.10;1.50;;;15.70;99.90;;;;;;5052013;28;20182;-67
2023/09/22 08:26:18;;;;;;;3.50;1.40;;;15.90;99.90;;;;;;5048813;28;20216;-68
2023/09/22 08:28:45;;;;;;;1.60;1.50;;;16.40;99.90;;;;;;5044044;28;20268;-67
2023/09/22 08:31:11;;;;;;;3.50;1.83;;;16.70;99.90;;;;;;5051940;28;20436;-67
2023/09/22 08:33:37;;;;;;;2.50;1.67;;;16.50;99.90;;;;;;5051837;28;20423;-67
2023/09/22 08:36:03;;;;;;;1.60;1.50;;;16.50;99.90;;;;;;5052583;28;20451;-67
2023/09/22 08:38:31;;;;;;;1.43;1.33;;;16.40;99.90;;;;;;5049876;28;20443;-67
2023/09/22 08:40:58;;;;;;;3.30;1.50;;;16.50;99.90;;;;;;5051806;28;20189;-67
2023/09/22 08:43:24;;;;;;;1.80;1.70;;;16.60;99.90;;;;;;5051738;28;20562;-67
2023/09/22 08:45:51;;;;;;;1.70;1.53;;;16.80;99.90;;;;;;5051859;28;20419;-68
2023/09/22 08:48:16;;;;;;;2.57;1.70;;;16.90;99.90;;;;;;5051930;28;20478;-67
2023/09/22 08:50:43;;;;;;;1.33;1.23;;;17.00;99.90;;;;;;5051559;28;20945;-67
2023/09/22 08:53:11;;;;;;;1.57;1.47;;;16.90;99.90;;;;;;5049083;28;20170;-67
2023/09/22 08:55:38;;;;;;;3.53;1.40;;;16.90;99.90;;;;;;5050204;28;20438;-68
2023/09/22 08:58:03;;;;;;;3.60;2.37;;;16.80;99.90;;;;;;5051920;28;20446;-67
2023/09/22 09:00:29;;;;;;;1.47;1.37;;;16.90;99.90;;;;;;5050658;28;20439;-67
2023/09/22 09:02:58;;;;;;;2.13;1.80;;;16.80;99.90;;;;;;5050399;28;20548;-68
2023/09/22 09:05:28;;;;;;;2.00;1.40;;;16.70;99.90;;;;;;5051834;28;20184;-68
2023/09/22 09:07:55;;;;;;;1.57;1.47;;;16.70;99.90;;;;;;5051743;28;20976;-68
2023/09/22 09:10:33;;;;;;;1.60;1.50;;;16.70;99.90;;;;;;5051109;28;20514;-68
2023/09/22 09:13:02;;;;;;;2.63;2.27;;;16.60;99.90;;;;;;5058122;28;20419;-68
2023/09/22 09:15:45;;;;;;;3.93;1.93;;;16.70;99.90;;;;;;5058472;28;20416;-68
2023/09/22 09:18:22;;;;;;;1.90;1.50;;;16.70;99.90;;;;;;5058210;28;20441;-68
2023/09/22 09:21:05;;;;;;;1.30;1.20;;;16.70;99.90;;;;;;5058289;28;20435;-67
2023/09/22 09:23:31;;;;;;;2.73;1.90;;;16.50;99.90;;;;;;5058168;28;20419;-67
2023/09/22 09:25:57;;;;;;;1.70;1.30;;;16.40;99.90;;;;;;5058240;28;20979;-67
2023/09/22 09:28:24;;;;;;;1.90;1.40;;;16.30;99.90;;;;;;5055820;28;20642;-70
2023/09/22 09:31:08;;;;;;;1.77;1.63;;;16.30;99.90;;;;;;5058114;28;20450;-71
2023/09/22 09:33:39;;;;;;;2.67;1.43;;;16.40;99.90;;;;;;5043352;28;20428;-70
2023/09/22 09:36:16;;;;;;;3.23;1.80;;;16.50;99.90;;;;;;5046407;28;20447;-67
2023/09/22 09:38:42;;;;;;;2.70;1.57;;;16.60;99.90;;;;;;5057758;28;20423;-68
2023/09/22 09:41:09;;;;;;;9.00;4.10;;;16.70;99.90;;;;;;5058169;28;20859;-68
2023/09/22 09:43:36;;;;;;;4.40;3.03;;;16.60;99.90;;;;;;5054413;28;20435;-67
2023/09/22 09:46:02;;;;;;;2.37;1.97;;;16.50;99.90;;;;;;5057825;28;20412;-67
2023/09/22 09:48:29;;;;;;;3.90;2.30;;;16.80;99.90;;;;;;5056486;28;20452;-67
2023/09/22 09:50:59;;;;;;;3.30;1.67;;;17.50;99.90;;;;;;5057767;28;20431;-68
2023/09/22 09:53:31;;;;;;;1.50;1.40;;;18.00;99.90;;;;;;5057714;28;20411;-67
2023/09/22 09:56:02;;;;;;;2.50;1.37;;;18.50;99.90;;;;;;5057915;28;20415;-68
2023/09/22 09:58:32;;;;;;;1.30;1.20;;;18.50;99.90;;;;;;5058057;28;20416;-68
2023/09/22 10:01:02;;;;;;;2.93;1.43;;;18.40;99.90;;;;;;5057163;28;20454;-68
2023/09/22 10:03:28;;;;;;;3.00;1.80;;;18.20;99.90;;;;;;5057732;28;20944;-67
2023/09/22 10:05:56;;;;;;;1.77;1.60;;;17.90;99.90;;;;;;5058397;28;20424;-67
2023/09/22 10:08:23;;;;;;;2.20;1.30;;;17.70;99.90;;;;;;5057842;28;20483;-67
2023/09/22 10:10:52;;;;;;;12.77;5.33;;;17.60;99.90;;;;;;5057408;28;20534;-67
2023/09/22 10:13:19;;;;;;;4.70;2.60;;;17.80;99.90;;;;;;5057729;28;20937;-68
2023/09/22 10:15:52;;;;;;;1.57;1.47;;;18.40;99.90;;;;;;5058067;28;20504;-69
2023/09/22 10:18:18;;;;;;;2.87;2.67;;;18.90;99.90;;;;;;5054805;28;20976;-70
2023/09/22 10:20:45;;;;;;;2.70;2.00;;;19.70;99.90;;;;;;5057630;28;20475;-68
2023/09/22 10:23:29;;;;;;;1.40;1.10;;;19.00;99.90;;;;;;5054632;28;20474;-71
2023/09/22 10:26:27;;;;;;;3.40;1.90;;;18.70;99.90;;;;;;5054525;28;20423;-70
2023/09/22 10:28:53;;;;;;;2.57;1.53;;;19.10;99.90;;;;;;5042436;28;20929;-68
2023/09/22 10:31:18;;;;;;;2.00;1.20;;;19.90;99.90;;;;;;5054031;28;20514;-68
2023/09/22 10:33:46;;;;;;;1.13;1.07;;;20.00;99.90;;;;;;5053976;28;20186;-69
2023/09/22 10:36:47;;;;;;;2.93;1.57;;;20.60;99.90;;;;;;5052343;28;20182;-69
2023/09/22 10:39:13;;;;;;;1.30;1.20;;;22.60;99.90;;;;;;5050824;28;20501;-67
2023/09/22 10:41:59;;;;;;;1.70;1.30;;;22.70;99.90;;;;;;5051689;28;20489;-68
2023/09/22 10:44:25;;;;;;;1.23;1.10;;;23.30;99.90;;;;;;5054121;28;20169;-67
2023/09/22 10:46:57;;;;;;;1.27;0.80;;;22.00;99.90;;;;;;5054270;28;20455;-69
2023/09/22 10:49:28;;;;;;;1.40;1.27;;;21.10;99.90;;;;;;5054257;28;20162;-69
2023/09/22 10:51:54;;;;;;;2.07;0.90;;;20.50;99.90;;;;;;5053013;28;20455;-67
2023/09/22 10:54:19;;;;;;;1.43;1.00;;;19.60;99.90;;;;;;5052812;28;20784;-67
2023/09/22 10:56:45;;;;;;;1.10;1.00;;;19.80;99.90;;;;;;5054031;28;20181;-67
2023/09/22 10:59:12;;;;;;;2.00;0.97;;;20.00;99.90;;;;;;5054082;28;20204;-67
2023/09/22 11:01:46;;;;;;;0.90;0.90;;;20.00;99.90;;;;;;5054010;28;20850;-68
2023/09/22 11:04:12;;;;;;;1.73;1.07;;;20.10;99.90;;;;;;5053650;28;20924;-69
2023/09/22 11:06:46;;;;;;;0.87;0.80;;;21.60;99.90;;;;;;5051926;28;20460;-67
2023/09/22 11:09:11;;;;;;;1.43;1.13;;;23.30;99.90;;;;;;5050955;28;20183;-68
2023/09/22 11:11:37;;;;;;;2.10;0.90;;;23.50;99.90;;;;;;5049464;28;20472;-69
2023/09/22 11:14:03;;;;;;;2.17;0.90;;;23.00;99.90;;;;;;5053279;28;20205;-68
2023/09/22 11:16:29;;;;;;;1.53;1.43;;;22.00;99.90;;;;;;5050714;28;20430;-70
2023/09/22 11:19:05;;;;;;;1.80;0.80;;;20.70;99.90;;;;;;5053315;28;20218;-69
2023/09/22 11:21:46;;;;;;;1.77;0.80;;;20.20;99.90;;;;;;5053361;28;20185;-69
2023/09/22 11:24:12;;;;;;;1.20;1.10;;;19.90;99.90;;;;;;5052132;28;20436;-70
2023/09/22 11:26:41;;;;;;;2.03;1.20;;;19.80;99.90;;;;;;5053216;28;20424;-69
2023/09/22 11:29:07;;;;;;;1.87;0.80;;;20.30;99.90;;;;;;5053277;28;20166;-68
2023/09/22 11:31:33;;;;;;;1.30;1.00;;;20.80;99.90;;;;;;5053230;28;20501;-69
2023/09/22 11:34:01;;;;;;;1.10;1.00;;;20.90;99.90;;;;;;5049984;28;20256;-69
2023/09/22 11:36:27;;;;;;;1.10;1.00;;;20.70;99.90;;;;;;5052330;28;20200;-68
2023/09/22 11:38:53;;;;;;;1.67;1.10;;;20.30;99.90;;;;;;5052012;28;20851;-68
2023/09/22 11:41:22;;;;;;;1.47;1.27;;;20.00;99.90;;;;;;5050738;28;20193;-68
2023/09/22 11:43:49;;;;;;;2.47;1.50;;;19.90;99.90;;;;;;5052539;28;20408;-68
2023/09/22 11:46:15;;;;;;;2.30;1.30;;;20.10;99.90;;;;;;5050980;28;20416;-68
2023/09/22 11:49:04;;;;;;;2.10;1.33;;;20.40;99.90;;;;;;5050967;28;20473;-69
2023/09/22 11:51:48;;;;;;;1.23;1.00;;;22.00;99.90;;;;;;5052966;28;20486;-68
2023/09/22 11:54:15;;;;;;;3.00;0.97;;;23.40;99.90;;;;;;5052569;28;20805;-68
2023/09/22 11:56:41;;;;;;;1.10;0.90;;;24.10;99.60;;;;;;5052761;28;20438;-69
2023/09/22 11:59:08;;;;;;;1.57;1.47;;;25.70;94.80;;;;;;5052933;28;20994;-68
2023/09/22 12:01:34;;;;;;;4.00;1.70;;;27.30;90.30;;;;;;5052859;28;20451;-68
2023/09/22 12:03:59;;;;;;;1.77;1.00;;;28.70;79.60;;;;;;5051495;28;20435;-69
2023/09/22 12:06:25;;;;;;;2.00;1.33;;;28.60;71.90;;;;;;5052094;28;20422;-69
2023/09/22 12:08:51;;;;;;;1.87;1.53;;;29.10;66.70;;;;;;5052622;28;20169;-69
2023/09/22 12:11:17;;;;;;;3.20;1.30;;;30.10;63.50;;;;;;5052432;28;20209;-70
2023/09/22 12:13:43;;;;;;;2.00;1.20;;;29.70;59.30;;;;;;5052404;28;20177;-68
2023/09/22 12:16:09;;;;;;;1.20;0.93;;;28.20;61.90;;;;;;5052584;28;20248;-69
2023/09/22 12:18:34;;;;;;;1.13;1.03;;;28.10;62.20;;;;;;5052526;28;20507;-68
2023/09/22 12:21:00;;;;;;;1.47;1.00;;;27.80;61.90;;;;;;5051187;28;20201;-69
2023/09/22 12:23:25;;;;;;;2.30;1.23;;;28.10;61.20;;;;;;5051899;28;20178;-68
2023/09/22 12:25:52;;;;;;;1.43;0.97;;;27.90;60.20;;;;;;5052343;28;20181;-69
2023/09/22 12:28:18;;;;;;;1.63;1.27;;;26.70;63.30;;;;;;5051191;28;20205;-68
2023/09/22 12:30:44;;;;;;;1.73;1.40;;;24.70;70.70;;;;;;5052054;28;20444;-68
2023/09/22 12:33:10;;;;;;;2.47;1.10;;;24.20;75.10;;;;;;5052041;28;20777;-68
2023/09/22 12:35:38;;;;;;;1.40;1.30;;;25.80;71.40;;;;;;5052107;28;20174;-68
2023/09/22 12:38:04;;;;;;;1.50;1.27;;;26.90;68.90;;;;;;5049492;28;20582;-68
2023/09/22 12:40:30;;;;;;;2.70;2.50;;;29.00;63.50;;;;;;5050572;28;20452;-68
2023/09/22 12:42:55;;;;;;;2.80;2.60;;;29.50;56.70;;;;;;5051745;28;20424;-68
2023/09/22 12:45:22;;;;;;;1.80;1.30;;;29.40;57.10;;;;;;5051942;28;20184;-69
2023/09/22 12:47:47;;;;;;;1.37;1.20;;;27.90;57.60;;;;;;5051908;28;20659;-68